sensor_id;sensor_type;location;lat;lon;timestamp;temperature;humidity
15483;DHT22;7843;50.330;7.312;2023-02-17T00:03:36;8.50;99.90
15483;DHT22;7843;50.330;7.312;2023-02-17T00:06:10;8.50;99.90
15483;DHT22;7843;50.330;7.312;2023-02-17T00:08:37;8.50;99.90
15483;DHT22;7843;50.330;7.312;2023-02-17T00:11:04;8.50;99.90
15483;DHT22;7843;50.330;7.312;2023-02-17T00:13:31;8.40;99.90
15483;DHT22;7843;50.330;7.312;2023-02-17T00:15:58;8.40;99.90
15483;DHT22;7843;50.330;7.312;2023-02-17T00:18:25;8.40;99.90
15483;DHT22;7843;50.330;7.312;2023-02-17T00:20:51;8.40;99.90
15483;DHT22;7843;50.330;7.312;2023-02-17T00:23:18;8.40;99.90
15483;DHT22;7843;50.330;7.312;2023-02-17T00:25:45;8.40;99.90
15483;DHT22;7843;50.330;7.312;2023-02-17T00:28:11;8.40;99.90
15483;DHT22;7843;50.330;7.312;2023-02-17T00:30:38;8.40;99.90
15483;DHT22;7843;50.330;7.312;2023-02-17T00:33:05;8.50;99.90
15483;DHT22;7843;50.330;7.312;2023-02-17T00:35:32;8.50;99.90
15483;DHT22;7843;50.330;7.312;2023-02-17T00:37:59;8.40;99.90
15483;DHT22;7843;50.330;7.312;2023-02-17T00:40:26;8.40;99.90
15483;DHT22;7843;50.330;7.312;2023-02-17T00:42:52;8.50;99.90
15483;DHT22;7843;50.330;7.312;2023-02-17T00:45:20;8.50;99.90
15483;DHT22;7843;50.330;7.312;2023-02-17T00:47:47;8.40;99.90
15483;DHT22;7843;50.330;7.312;2023-02-17T00:50:13;8.40;99.90
15483;DHT22;7843;50.330;7.312;2023-02-17T00:52:40;8.40;99.90
15483;DHT22;7843;50.330;7.312;2023-02-17T00:55:07;8.40;99.90
15483;DHT22;7843;50.330;7.312;2023-02-17T00:57:34;8.50;99.90
15483;DHT22;7843;50.330;7.312;2023-02-17T01:00:00;8.60;99.90
15483;DHT22;7843;50.330;7.312;2023-02-17T01:02:27;8.60;99.90
15483;DHT22;7843;50.330;7.312;2023-02-17T01:04:54;8.60;99.90
15483;DHT22;7843;50.330;7.312;2023-02-17T01:07:20;8.60;99.90
15483;DHT22;7843;50.330;7.312;2023-02-17T01:09:47;8.60;99.90
15483;DHT22;7843;50.330;7.312;2023-02-17T01:12:13;8.60;99.90
15483;DHT22;7843;50.330;7.312;2023-02-17T01:14:40;8.60;99.90
15483;DHT22;7843;50.330;7.312;2023-02-17T01:17:09;8.60;99.90
15483;DHT22;7843;50.330;7.312;2023-02-17T01:19:36;8.70;99.90
15483;DHT22;7843;50.330;7.312;2023-02-17T01:22:02;8.70;99.90
15483;DHT22;7843;50.330;7.312;2023-02-17T01:24:29;8.70;99.90
15483;DHT22;7843;50.330;7.312;2023-02-17T01:26:55;8.60;99.90
15483;DHT22;7843;50.330;7.312;2023-02-17T01:29:22;8.70;99.90
15483;DHT22;7843;50.330;7.312;2023-02-17T01:31:49;8.60;99.90
15483;DHT22;7843;50.330;7.312;2023-02-17T01:34:15;8.60;99.90
15483;DHT22;7843;50.330;7.312;2023-02-17T01:36:42;8.60;99.90
15483;DHT22;7843;50.330;7.312;2023-02-17T01:39:11;8.60;99.90
15483;DHT22;7843;50.330;7.312;2023-02-17T01:41:38;8.60;99.90
15483;DHT22;7843;50.330;7.312;2023-02-17T01:44:06;8.70;99.90
15483;DHT22;7843;50.330;7.312;2023-02-17T01:46:34;8.70;99.90
15483;DHT22;7843;50.330;7.312;2023-02-17T01:49:03;8.60;99.90
15483;DHT22;7843;50.330;7.312;2023-02-17T01:51:36;8.70;99.90
15483;DHT22;7843;50.330;7.312;2023-02-17T01:54:20;8.70;99.90
15483;DHT22;7843;50.330;7.312;2023-02-17T01:56:48;8.70;99.90
15483;DHT22;7843;50.330;7.312;2023-02-17T01:59:19;8.60;99.90
15483;DHT22;7843;50.330;7.312;2023-02-17T02:01:48;8.60;99.90
15483;DHT22;7843;50.330;7.312;2023-02-17T02:04:18;8.60;99.90
15483;DHT22;7843;50.330;7.312;2023-02-17T02:06:46;8.60;99.90
15483;DHT22;7843;50.330;7.312;2023-02-17T02:09:20;8.50;99.90
15483;DHT22;7843;50.330;7.312;2023-02-17T02:11:49;8.60;99.90
15483;DHT22;7843;50.330;7.312;2023-02-17T02:14:17;8.60;99.90
15483;DHT22;7843;50.330;7.312;2023-02-17T02:30:49;8.60;99.90
15483;DHT22;7843;50.330;7.312;2023-02-17T02:35:58;8.60;99.90
15483;DHT22;7843;50.330;7.312;2023-02-17T02:38:36;8.70;99.90
15483;DHT22;7843;50.330;7.312;2023-02-17T02:41:14;8.60;99.90
15483;DHT22;7843;50.330;7.312;2023-02-17T02:43:42;8.70;99.90
15483;DHT22;7843;50.330;7.312;2023-02-17T02:46:09;8.70;99.90
15483;DHT22;7843;50.330;7.312;2023-02-17T02:48:36;8.60;99.90
15483;DHT22;7843;50.330;7.312;2023-02-17T03:04:44;8.70;99.90
15483;DHT22;7843;50.330;7.312;2023-02-17T03:07:32;8.70;99.90
15483;DHT22;7843;50.330;7.312;2023-02-17T03:10:00;8.80;99.90
15483;DHT22;7843;50.330;7.312;2023-02-17T03:12:27;8.80;99.90
15483;DHT22;7843;50.330;7.312;2023-02-17T03:15:07;8.80;99.90
15483;DHT22;7843;50.330;7.312;2023-02-17T03:17:34;8.90;99.90
15483;DHT22;7843;50.330;7.312;2023-02-17T03:20:03;8.80;99.90
15483;DHT22;7843;50.330;7.312;2023-02-17T03:22:35;8.80;99.90
15483;DHT22;7843;50.330;7.312;2023-02-17T03:25:03;8.90;99.90
15483;DHT22;7843;50.330;7.312;2023-02-17T03:27:30;8.90;99.90
15483;DHT22;7843;50.330;7.312;2023-02-17T03:29:57;8.90;99.90
15483;DHT22;7843;50.330;7.312;2023-02-17T03:32:24;8.90;99.90
15483;DHT22;7843;50.330;7.312;2023-02-17T03:34:51;9.00;99.90
15483;DHT22;7843;50.330;7.312;2023-02-17T03:37:17;8.90;99.90
15483;DHT22;7843;50.330;7.312;2023-02-17T03:39:44;9.00;99.90
15483;DHT22;7843;50.330;7.312;2023-02-17T03:42:11;9.10;99.90
15483;DHT22;7843;50.330;7.312;2023-02-17T03:44:38;9.10;99.90
15483;DHT22;7843;50.330;7.312;2023-02-17T03:47:04;9.10;99.90
15483;DHT22;7843;50.330;7.312;2023-02-17T03:49:32;9.10;99.90
15483;DHT22;7843;50.330;7.312;2023-02-17T03:51:58;9.10;99.90
15483;DHT22;7843;50.330;7.312;2023-02-17T03:54:25;9.20;99.90
15483;DHT22;7843;50.330;7.312;2023-02-17T03:56:52;9.20;99.90
15483;DHT22;7843;50.330;7.312;2023-02-17T03:59:19;9.10;99.90
15483;DHT22;7843;50.330;7.312;2023-02-17T04:01:46;9.10;99.90
15483;DHT22;7843;50.330;7.312;2023-02-17T04:04:12;9.00;99.90
15483;DHT22;7843;50.330;7.312;2023-02-17T04:06:39;9.10;99.90
15483;DHT22;7843;50.330;7.312;2023-02-17T04:09:06;9.10;99.90
15483;DHT22;7843;50.330;7.312;2023-02-17T04:11:32;9.20;99.90
15483;DHT22;7843;50.330;7.312;2023-02-17T04:13:59;9.20;99.90
15483;DHT22;7843;50.330;7.312;2023-02-17T04:16:26;9.30;99.90
15483;DHT22;7843;50.330;7.312;2023-02-17T04:18:52;9.30;99.90
15483;DHT22;7843;50.330;7.312;2023-02-17T04:21:19;9.30;99.90
15483;DHT22;7843;50.330;7.312;2023-02-17T04:23:45;9.30;99.90
15483;DHT22;7843;50.330;7.312;2023-02-17T04:26:12;9.40;99.90
15483;DHT22;7843;50.330;7.312;2023-02-17T04:28:40;9.30;99.90
15483;DHT22;7843;50.330;7.312;2023-02-17T04:31:07;9.40;99.90
15483;DHT22;7843;50.330;7.312;2023-02-17T04:33:34;9.30;99.90
15483;DHT22;7843;50.330;7.312;2023-02-17T04:36:01;9.40;99.90
15483;DHT22;7843;50.330;7.312;2023-02-17T04:38:29;9.40;99.90
15483;DHT22;7843;50.330;7.312;2023-02-17T04:40:58;9.40;99.90
15483;DHT22;7843;50.330;7.312;2023-02-17T04:43:26;9.30;99.90
15483;DHT22;7843;50.330;7.312;2023-02-17T04:45:53;9.30;99.90
15483;DHT22;7843;50.330;7.312;2023-02-17T04:48:20;9.20;99.90
15483;DHT22;7843;50.330;7.312;2023-02-17T04:50:47;9.20;99.90
15483;DHT22;7843;50.330;7.312;2023-02-17T04:53:14;9.30;99.90
15483;DHT22;7843;50.330;7.312;2023-02-17T04:55:42;9.30;99.90
15483;DHT22;7843;50.330;7.312;2023-02-17T04:58:09;9.30;99.90
15483;DHT22;7843;50.330;7.312;2023-02-17T05:00:36;9.30;99.90
15483;DHT22;7843;50.330;7.312;2023-02-17T05:03:03;9.30;99.90
15483;DHT22;7843;50.330;7.312;2023-02-17T05:05:29;9.20;99.90
15483;DHT22;7843;50.330;7.312;2023-02-17T05:07:56;9.20;99.90
15483;DHT22;7843;50.330;7.312;2023-02-17T05:10:23;9.20;99.90
15483;DHT22;7843;50.330;7.312;2023-02-17T05:12:49;9.20;99.90
15483;DHT22;7843;50.330;7.312;2023-02-17T05:15:16;9.20;99.90
15483;DHT22;7843;50.330;7.312;2023-02-17T05:17:43;9.20;99.90
15483;DHT22;7843;50.330;7.312;2023-02-17T05:20:10;9.20;99.90
15483;DHT22;7843;50.330;7.312;2023-02-17T05:22:37;9.30;99.90
15483;DHT22;7843;50.330;7.312;2023-02-17T05:25:04;9.20;99.90
15483;DHT22;7843;50.330;7.312;2023-02-17T05:27:31;9.20;99.90
15483;DHT22;7843;50.330;7.312;2023-02-17T05:29:58;9.20;99.90
15483;DHT22;7843;50.330;7.312;2023-02-17T05:32:24;9.20;99.90
15483;DHT22;7843;50.330;7.312;2023-02-17T05:34:51;9.20;99.90
15483;DHT22;7843;50.330;7.312;2023-02-17T05:37:18;9.20;99.90
15483;DHT22;7843;50.330;7.312;2023-02-17T05:39:44;9.20;99.90
15483;DHT22;7843;50.330;7.312;2023-02-17T05:42:11;9.30;99.90
15483;DHT22;7843;50.330;7.312;2023-02-17T05:44:41;9.30;99.90
15483;DHT22;7843;50.330;7.312;2023-02-17T05:47:07;9.20;99.90
15483;DHT22;7843;50.330;7.312;2023-02-17T05:49:34;9.20;99.90
15483;DHT22;7843;50.330;7.312;2023-02-17T05:52:01;9.30;99.90
15483;DHT22;7843;50.330;7.312;2023-02-17T05:54:28;9.30;99.90
15483;DHT22;7843;50.330;7.312;2023-02-17T05:56:54;9.20;99.90
15483;DHT22;7843;50.330;7.312;2023-02-17T05:59:21;9.30;99.90
15483;DHT22;7843;50.330;7.312;2023-02-17T06:01:48;9.30;99.90
15483;DHT22;7843;50.330;7.312;2023-02-17T06:04:15;9.40;99.90
15483;DHT22;7843;50.330;7.312;2023-02-17T06:06:41;9.30;99.90
15483;DHT22;7843;50.330;7.312;2023-02-17T06:09:08;9.40;99.90
15483;DHT22;7843;50.330;7.312;2023-02-17T06:11:34;9.30;99.90
15483;DHT22;7843;50.330;7.312;2023-02-17T06:14:01;9.30;99.90
15483;DHT22;7843;50.330;7.312;2023-02-17T06:16:28;9.30;99.90
15483;DHT22;7843;50.330;7.312;2023-02-17T06:18:55;9.20;99.90
15483;DHT22;7843;50.330;7.312;2023-02-17T06:21:21;9.30;99.90
15483;DHT22;7843;50.330;7.312;2023-02-17T06:23:48;9.30;99.90
15483;DHT22;7843;50.330;7.312;2023-02-17T06:26:15;9.20;99.90
15483;DHT22;7843;50.330;7.312;2023-02-17T06:28:43;9.30;99.90
15483;DHT22;7843;50.330;7.312;2023-02-17T06:31:10;9.40;99.90
15483;DHT22;7843;50.330;7.312;2023-02-17T06:33:37;9.40;99.90
15483;DHT22;7843;50.330;7.312;2023-02-17T06:36:04;9.40;99.90
15483;DHT22;7843;50.330;7.312;2023-02-17T06:38:31;9.40;99.90
15483;DHT22;7843;50.330;7.312;2023-02-17T06:40:57;9.40;99.90
15483;DHT22;7843;50.330;7.312;2023-02-17T06:43:24;9.40;99.90
15483;DHT22;7843;50.330;7.312;2023-02-17T06:45:51;9.40;99.90
15483;DHT22;7843;50.330;7.312;2023-02-17T06:48:18;9.40;99.90
15483;DHT22;7843;50.330;7.312;2023-02-17T06:50:44;9.40;99.90
15483;DHT22;7843;50.330;7.312;2023-02-17T06:53:11;9.40;99.90
15483;DHT22;7843;50.330;7.312;2023-02-17T06:55:37;9.40;99.90
15483;DHT22;7843;50.330;7.312;2023-02-17T06:58:04;9.50;99.90
15483;DHT22;7843;50.330;7.312;2023-02-17T07:00:35;9.50;99.90
15483;DHT22;7843;50.330;7.312;2023-02-17T07:03:02;9.50;99.90
15483;DHT22;7843;50.330;7.312;2023-02-17T07:05:29;9.60;99.90
15483;DHT22;7843;50.330;7.312;2023-02-17T07:07:56;9.60;99.90
15483;DHT22;7843;50.330;7.312;2023-02-17T07:10:23;9.50;99.90
15483;DHT22;7843;50.330;7.312;2023-02-17T07:12:50;9.60;99.90
15483;DHT22;7843;50.330;7.312;2023-02-17T07:15:17;9.60;99.90
15483;DHT22;7843;50.330;7.312;2023-02-17T07:17:44;9.60;99.90
15483;DHT22;7843;50.330;7.312;2023-02-17T07:20:10;9.60;99.90
15483;DHT22;7843;50.330;7.312;2023-02-17T07:22:38;9.60;99.90
15483;DHT22;7843;50.330;7.312;2023-02-17T07:25:05;9.60;99.90
15483;DHT22;7843;50.330;7.312;2023-02-17T07:27:35;9.70;99.90
15483;DHT22;7843;50.330;7.312;2023-02-17T07:30:02;9.70;99.90
15483;DHT22;7843;50.330;7.312;2023-02-17T07:32:30;9.70;99.90
15483;DHT22;7843;50.330;7.312;2023-02-17T07:34:56;9.70;99.90
15483;DHT22;7843;50.330;7.312;2023-02-17T07:37:23;9.80;99.90
15483;DHT22;7843;50.330;7.312;2023-02-17T07:39:49;9.80;99.90
15483;DHT22;7843;50.330;7.312;2023-02-17T07:42:17;9.80;99.90
15483;DHT22;7843;50.330;7.312;2023-02-17T07:44:44;9.90;99.90
15483;DHT22;7843;50.330;7.312;2023-02-17T07:47:11;9.90;99.90
15483;DHT22;7843;50.330;7.312;2023-02-17T07:49:37;10.00;99.90
15483;DHT22;7843;50.330;7.312;2023-02-17T07:52:04;10.00;99.90
15483;DHT22;7843;50.330;7.312;2023-02-17T07:54:31;10.00;99.90
15483;DHT22;7843;50.330;7.312;2023-02-17T07:56:58;10.10;99.90
15483;DHT22;7843;50.330;7.312;2023-02-17T07:59:25;10.10;99.90
15483;DHT22;7843;50.330;7.312;2023-02-17T08:01:51;10.10;99.90
15483;DHT22;7843;50.330;7.312;2023-02-17T08:04:18;10.20;99.90
15483;DHT22;7843;50.330;7.312;2023-02-17T08:06:45;10.20;99.90
15483;DHT22;7843;50.330;7.312;2023-02-17T08:09:11;10.20;99.90
15483;DHT22;7843;50.330;7.312;2023-02-17T08:11:57;10.20;99.90
15483;DHT22;7843;50.330;7.312;2023-02-17T08:14:42;10.20;99.90
15483;DHT22;7843;50.330;7.312;2023-02-17T08:17:09;10.30;99.90
15483;DHT22;7843;50.330;7.312;2023-02-17T08:19:36;10.40;99.90
15483;DHT22;7843;50.330;7.312;2023-02-17T08:22:14;10.40;99.90
15483;DHT22;7843;50.330;7.312;2023-02-17T08:24:41;10.60;99.90
15483;DHT22;7843;50.330;7.312;2023-02-17T08:27:07;10.70;99.90
15483;DHT22;7843;50.330;7.312;2023-02-17T08:29:34;10.70;99.90
15483;DHT22;7843;50.330;7.312;2023-02-17T08:32:01;10.70;99.90
15483;DHT22;7843;50.330;7.312;2023-02-17T08:34:28;10.80;99.90
15483;DHT22;7843;50.330;7.312;2023-02-17T08:37:00;10.80;99.90
15483;DHT22;7843;50.330;7.312;2023-02-17T08:39:27;10.90;99.90
15483;DHT22;7843;50.330;7.312;2023-02-17T08:41:54;10.90;99.90
15483;DHT22;7843;50.330;7.312;2023-02-17T08:44:21;11.00;99.90
15483;DHT22;7843;50.330;7.312;2023-02-17T08:46:49;11.00;99.90
15483;DHT22;7843;50.330;7.312;2023-02-17T08:49:19;11.00;99.90
15483;DHT22;7843;50.330;7.312;2023-02-17T08:51:47;11.10;99.90
15483;DHT22;7843;50.330;7.312;2023-02-17T08:54:14;11.20;99.90
15483;DHT22;7843;50.330;7.312;2023-02-17T08:56:41;11.20;99.90
15483;DHT22;7843;50.330;7.312;2023-02-17T08:59:09;11.30;99.90
15483;DHT22;7843;50.330;7.312;2023-02-17T09:01:37;11.40;99.90
15483;DHT22;7843;50.330;7.312;2023-02-17T09:04:07;11.50;99.90
15483;DHT22;7843;50.330;7.312;2023-02-17T09:06:40;11.70;99.90
15483;DHT22;7843;50.330;7.312;2023-02-17T09:09:10;11.90;99.90
15483;DHT22;7843;50.330;7.312;2023-02-17T09:11:37;12.10;99.90
15483;DHT22;7843;50.330;7.312;2023-02-17T09:14:05;12.10;99.90
15483;DHT22;7843;50.330;7.312;2023-02-17T09:16:32;12.20;99.90
15483;DHT22;7843;50.330;7.312;2023-02-17T09:18:59;12.30;99.90
15483;DHT22;7843;50.330;7.312;2023-02-17T09:21:25;12.30;99.90
15483;DHT22;7843;50.330;7.312;2023-02-17T09:23:52;12.40;99.90
15483;DHT22;7843;50.330;7.312;2023-02-17T09:26:20;12.50;99.80
15483;DHT22;7843;50.330;7.312;2023-02-17T09:28:47;12.50;99.20
15483;DHT22;7843;50.330;7.312;2023-02-17T09:31:17;12.50;99.50
15483;DHT22;7843;50.330;7.312;2023-02-17T09:33:44;12.60;99.60
15483;DHT22;7843;50.330;7.312;2023-02-17T09:36:15;12.60;99.40
15483;DHT22;7843;50.330;7.312;2023-02-17T09:38:42;12.60;99.40
15483;DHT22;7843;50.330;7.312;2023-02-17T09:43:49;12.60;99.50
15483;DHT22;7843;50.330;7.312;2023-02-17T09:46:43;12.60;99.30
15483;DHT22;7843;50.330;7.312;2023-02-17T09:49:30;12.70;99.50
15483;DHT22;7843;50.330;7.312;2023-02-17T09:54:42;12.80;99.40
15483;DHT22;7843;50.330;7.312;2023-02-17T09:57:14;12.70;99.10
15483;DHT22;7843;50.330;7.312;2023-02-17T09:59:54;12.70;99.20
15483;DHT22;7843;50.330;7.312;2023-02-17T10:02:38;12.70;99.10
15483;DHT22;7843;50.330;7.312;2023-02-17T10:05:07;12.70;99.20
15483;DHT22;7843;50.330;7.312;2023-02-17T10:08:03;12.70;99.20
15483;DHT22;7843;50.330;7.312;2023-02-17T10:10:34;12.60;99.20
15483;DHT22;7843;50.330;7.312;2023-02-17T10:13:04;12.70;99.20
15483;DHT22;7843;50.330;7.312;2023-02-17T10:15:38;12.80;99.10
15483;DHT22;7843;50.330;7.312;2023-02-17T10:18:14;12.80;99.20
15483;DHT22;7843;50.330;7.312;2023-02-17T10:23:27;13.00;99.20
15483;DHT22;7843;50.330;7.312;2023-02-17T10:36:58;13.60;97.20
15483;DHT22;7843;50.330;7.312;2023-02-17T10:42:29;13.60;96.90
15483;DHT22;7843;50.330;7.312;2023-02-17T10:45:14;13.60;97.20
15483;DHT22;7843;50.330;7.312;2023-02-17T10:47:44;13.60;96.70
15483;DHT22;7843;50.330;7.312;2023-02-17T10:50:21;13.70;97.20
15483;DHT22;7843;50.330;7.312;2023-02-17T10:52:49;13.80;96.80
15483;DHT22;7843;50.330;7.312;2023-02-17T10:55:41;13.80;96.50
15483;DHT22;7843;50.330;7.312;2023-02-17T10:58:18;13.90;96.60
15483;DHT22;7843;50.330;7.312;2023-02-17T11:00:46;14.10;97.00
15483;DHT22;7843;50.330;7.312;2023-02-17T11:03:24;14.20;96.30
15483;DHT22;7843;50.330;7.312;2023-02-17T11:05:57;14.30;95.90
15483;DHT22;7843;50.330;7.312;2023-02-17T11:10:59;14.50;95.60
15483;DHT22;7843;50.330;7.312;2023-02-17T11:13:32;14.70;95.40
15483;DHT22;7843;50.330;7.312;2023-02-17T11:15:59;14.90;95.00
15483;DHT22;7843;50.330;7.312;2023-02-17T11:18:34;15.00;94.10
15483;DHT22;7843;50.330;7.312;2023-02-17T11:21:10;15.20;94.10
15483;DHT22;7843;50.330;7.312;2023-02-17T11:24:00;15.20;93.70
15483;DHT22;7843;50.330;7.312;2023-02-17T11:26:31;15.30;93.20
15483;DHT22;7843;50.330;7.312;2023-02-17T11:31:33;15.10;94.00
15483;DHT22;7843;50.330;7.312;2023-02-17T11:34:13;15.10;94.10
15483;DHT22;7843;50.330;7.312;2023-02-17T11:36:43;15.10;93.50
15483;DHT22;7843;50.330;7.312;2023-02-17T11:39:19;15.00;94.10
15483;DHT22;7843;50.330;7.312;2023-02-17T11:41:46;15.20;93.70
15483;DHT22;7843;50.330;7.312;2023-02-17T11:44:22;15.20;93.40
15483;DHT22;7843;50.330;7.312;2023-02-17T11:47:05;15.20;93.30
15483;DHT22;7843;50.330;7.312;2023-02-17T11:55:10;15.30;92.60
15483;DHT22;7843;50.330;7.312;2023-02-17T11:57:50;15.30;92.80
15483;DHT22;7843;50.330;7.312;2023-02-17T12:00:48;15.40;93.40
15483;DHT22;7843;50.330;7.312;2023-02-17T12:06:13;15.50;92.60
15483;DHT22;7843;50.330;7.312;2023-02-17T12:09:00;15.20;92.60
15483;DHT22;7843;50.330;7.312;2023-02-17T12:17:35;15.10;92.80
15483;DHT22;7843;50.330;7.312;2023-02-17T12:34:40;15.30;93.60
15483;DHT22;7843;50.330;7.312;2023-02-17T12:37:18;15.40;93.20
15483;DHT22;7843;50.330;7.312;2023-02-17T12:39:53;15.40;93.30
15483;DHT22;7843;50.330;7.312;2023-02-17T12:42:25;15.50;93.00
15483;DHT22;7843;50.330;7.312;2023-02-17T12:45:01;15.50;92.50
15483;DHT22;7843;50.330;7.312;2023-02-17T12:50:06;15.40;93.00
15483;DHT22;7843;50.330;7.312;2023-02-17T12:52:43;15.50;93.10
15483;DHT22;7843;50.330;7.312;2023-02-17T12:55:21;15.40;92.70
15483;DHT22;7843;50.330;7.312;2023-02-17T12:57:56;15.30;93.40
15483;DHT22;7843;50.330;7.312;2023-02-17T13:00:39;15.20;93.60
15483;DHT22;7843;50.330;7.312;2023-02-17T13:03:06;15.10;93.70
15483;DHT22;7843;50.330;7.312;2023-02-17T13:05:40;15.10;94.20
15483;DHT22;7843;50.330;7.312;2023-02-17T13:10:38;15.50;93.60
15483;DHT22;7843;50.330;7.312;2023-02-17T13:13:09;16.20;92.20
15483;DHT22;7843;50.330;7.312;2023-02-17T13:15:42;16.80;90.50
15483;DHT22;7843;50.330;7.312;2023-02-17T13:18:27;17.20;89.10
15483;DHT22;7843;50.330;7.312;2023-02-17T13:23:43;17.50;88.20
15483;DHT22;7843;50.330;7.312;2023-02-17T13:28:50;18.10;86.50
15483;DHT22;7843;50.330;7.312;2023-02-17T13:31:24;18.20;86.00
15483;DHT22;7843;50.330;7.312;2023-02-17T13:33:56;17.80;85.90
15483;DHT22;7843;50.330;7.312;2023-02-17T13:39:00;16.80;88.40
15483;DHT22;7843;50.330;7.312;2023-02-17T13:41:47;16.40;89.50
15483;DHT22;7843;50.330;7.312;2023-02-17T13:44:32;16.80;89.40
15483;DHT22;7843;50.330;7.312;2023-02-17T13:47:13;17.40;88.10
15483;DHT22;7843;50.330;7.312;2023-02-17T13:49:41;18.20;86.70
15483;DHT22;7843;50.330;7.312;2023-02-17T13:52:17;18.80;84.00
15483;DHT22;7843;50.330;7.312;2023-02-17T13:55:05;19.20;83.40
15483;DHT22;7843;50.330;7.312;2023-02-17T13:57:34;19.20;82.70
15483;DHT22;7843;50.330;7.312;2023-02-17T14:00:15;19.40;82.30
15483;DHT22;7843;50.330;7.312;2023-02-17T14:02:47;19.20;82.30
15483;DHT22;7843;50.330;7.312;2023-02-17T14:07:47;18.80;83.20
15483;DHT22;7843;50.330;7.312;2023-02-17T14:10:20;18.60;83.50
15483;DHT22;7843;50.330;7.312;2023-02-17T14:12:48;18.20;83.90
15483;DHT22;7843;50.330;7.312;2023-02-17T14:15:21;17.90;84.90
15483;DHT22;7843;50.330;7.312;2023-02-17T14:17:48;18.00;86.00
15483;DHT22;7843;50.330;7.312;2023-02-17T14:25:37;18.80;83.60
15483;DHT22;7843;50.330;7.312;2023-02-17T14:28:17;19.40;82.60
15483;DHT22;7843;50.330;7.312;2023-02-17T14:30:44;19.90;81.00
15483;DHT22;7843;50.330;7.312;2023-02-17T14:38:27;18.60;82.30
15483;DHT22;7843;50.330;7.312;2023-02-17T14:40:54;17.90;84.80
15483;DHT22;7843;50.330;7.312;2023-02-17T14:43:21;17.40;85.90
15483;DHT22;7843;50.330;7.312;2023-02-17T14:45:49;16.90;86.90
15483;DHT22;7843;50.330;7.312;2023-02-17T14:48:16;16.50;88.30
15483;DHT22;7843;50.330;7.312;2023-02-17T14:50:43;16.40;88.90
15483;DHT22;7843;50.330;7.312;2023-02-17T14:53:19;16.20;89.20
15483;DHT22;7843;50.330;7.312;2023-02-17T14:55:52;16.00;89.90
15483;DHT22;7843;50.330;7.312;2023-02-17T14:58:22;15.80;90.30
15483;DHT22;7843;50.330;7.312;2023-02-17T15:00:50;15.50;90.70
15483;DHT22;7843;50.330;7.312;2023-02-17T15:03:17;15.40;91.60
15483;DHT22;7843;50.330;7.312;2023-02-17T15:05:44;15.50;91.50
15483;DHT22;7843;50.330;7.312;2023-02-17T15:08:19;15.40;91.50
15483;DHT22;7843;50.330;7.312;2023-02-17T15:10:48;15.20;91.90
15483;DHT22;7843;50.330;7.312;2023-02-17T15:13:20;15.20;92.00
15483;DHT22;7843;50.330;7.312;2023-02-17T15:15:47;15.10;92.00
15483;DHT22;7843;50.330;7.312;2023-02-17T15:18:16;15.00;92.40
15483;DHT22;7843;50.330;7.312;2023-02-17T15:20:48;14.90;92.70
15483;DHT22;7843;50.330;7.312;2023-02-17T15:23:19;14.80;92.80
15483;DHT22;7843;50.330;7.312;2023-02-17T15:25:47;14.80;92.50
15483;DHT22;7843;50.330;7.312;2023-02-17T15:28:16;14.80;92.60
15483;DHT22;7843;50.330;7.312;2023-02-17T15:30:50;14.70;92.90
15483;DHT22;7843;50.330;7.312;2023-02-17T15:33:19;14.70;92.90
15483;DHT22;7843;50.330;7.312;2023-02-17T15:35:49;14.60;93.00
15483;DHT22;7843;50.330;7.312;2023-02-17T15:38:16;14.60;92.80
15483;DHT22;7843;50.330;7.312;2023-02-17T15:40:43;14.50;93.30
15483;DHT22;7843;50.330;7.312;2023-02-17T15:43:18;14.50;93.00
15483;DHT22;7843;50.330;7.312;2023-02-17T15:45:45;14.40;93.10
15483;DHT22;7843;50.330;7.312;2023-02-17T15:48:23;14.40;93.30
15483;DHT22;7843;50.330;7.312;2023-02-17T15:50:51;14.30;93.50
15483;DHT22;7843;50.330;7.312;2023-02-17T15:53:18;14.30;93.60
15483;DHT22;7843;50.330;7.312;2023-02-17T15:55:45;14.30;93.60
15483;DHT22;7843;50.330;7.312;2023-02-17T15:58:15;14.30;93.30
15483;DHT22;7843;50.330;7.312;2023-02-17T16:00:43;14.30;93.40
15483;DHT22;7843;50.330;7.312;2023-02-17T16:03:16;14.10;93.40
15483;DHT22;7843;50.330;7.312;2023-02-17T16:05:43;14.00;93.80
15483;DHT22;7843;50.330;7.312;2023-02-17T16:08:10;13.90;93.80
15483;DHT22;7843;50.330;7.312;2023-02-17T16:10:37;14.00;93.90
15483;DHT22;7843;50.330;7.312;2023-02-17T16:13:14;13.90;94.00
15483;DHT22;7843;50.330;7.312;2023-02-17T16:15:42;13.70;94.30
15483;DHT22;7843;50.330;7.312;2023-02-17T16:18:18;13.60;94.50
15483;DHT22;7843;50.330;7.312;2023-02-17T16:20:46;13.60;94.60
15483;DHT22;7843;50.330;7.312;2023-02-17T16:23:15;13.50;94.70
15483;DHT22;7843;50.330;7.312;2023-02-17T16:25:43;13.40;94.70
15483;DHT22;7843;50.330;7.312;2023-02-17T16:28:17;13.40;94.80
15483;DHT22;7843;50.330;7.312;2023-02-17T16:30:44;13.40;94.90
15483;DHT22;7843;50.330;7.312;2023-02-17T16:33:12;13.40;95.00
15483;DHT22;7843;50.330;7.312;2023-02-17T16:35:39;13.40;94.80
15483;DHT22;7843;50.330;7.312;2023-02-17T16:38:11;13.40;94.90
15483;DHT22;7843;50.330;7.312;2023-02-17T16:40:44;13.50;94.60
15483;DHT22;7843;50.330;7.312;2023-02-17T16:43:14;13.40;94.70
15483;DHT22;7843;50.330;7.312;2023-02-17T16:45:55;13.40;94.70
15483;DHT22;7843;50.330;7.312;2023-02-17T16:48:24;13.40;94.90
15483;DHT22;7843;50.330;7.312;2023-02-17T16:50:51;13.40;94.40
15483;DHT22;7843;50.330;7.312;2023-02-17T16:53:18;13.40;94.60
15483;DHT22;7843;50.330;7.312;2023-02-17T16:55:46;13.40;94.30
15483;DHT22;7843;50.330;7.312;2023-02-17T16:58:24;13.50;94.30
15483;DHT22;7843;50.330;7.312;2023-02-17T17:00:52;13.40;94.50
15483;DHT22;7843;50.330;7.312;2023-02-17T17:03:20;13.40;94.60
15483;DHT22;7843;50.330;7.312;2023-02-17T17:05:52;13.40;94.40
15483;DHT22;7843;50.330;7.312;2023-02-17T17:08:19;13.40;94.40
15483;DHT22;7843;50.330;7.312;2023-02-17T17:10:47;13.40;94.40
15483;DHT22;7843;50.330;7.312;2023-02-17T17:13:14;13.40;94.70
15483;DHT22;7843;50.330;7.312;2023-02-17T17:15:43;13.30;94.90
15483;DHT22;7843;50.330;7.312;2023-02-17T17:18:18;13.30;95.10
15483;DHT22;7843;50.330;7.312;2023-02-17T17:20:46;13.30;95.20
15483;DHT22;7843;50.330;7.312;2023-02-17T17:23:14;13.20;95.40
15483;DHT22;7843;50.330;7.312;2023-02-17T17:25:43;13.20;95.90
15483;DHT22;7843;50.330;7.312;2023-02-17T17:28:13;13.30;95.90
15483;DHT22;7843;50.330;7.312;2023-02-17T17:30:41;13.20;96.10
15483;DHT22;7843;50.330;7.312;2023-02-17T17:33:07;13.20;96.40
15483;DHT22;7843;50.330;7.312;2023-02-17T17:35:34;13.10;96.70
15483;DHT22;7843;50.330;7.312;2023-02-17T17:38:01;13.10;97.00
15483;DHT22;7843;50.330;7.312;2023-02-17T17:40:31;13.10;97.10
15483;DHT22;7843;50.330;7.312;2023-02-17T17:42:58;13.10;97.30
15483;DHT22;7843;50.330;7.312;2023-02-17T17:45:25;13.00;97.30
15483;DHT22;7843;50.330;7.312;2023-02-17T17:47:52;13.00;97.60
15483;DHT22;7843;50.330;7.312;2023-02-17T17:50:22;13.00;97.70
15483;DHT22;7843;50.330;7.312;2023-02-17T17:52:49;12.90;98.10
15483;DHT22;7843;50.330;7.312;2023-02-17T17:55:15;12.90;98.70
15483;DHT22;7843;50.330;7.312;2023-02-17T17:57:42;12.80;99.30
15483;DHT22;7843;50.330;7.312;2023-02-17T18:00:12;12.80;99.90
15483;DHT22;7843;50.330;7.312;2023-02-17T18:02:39;12.60;99.90